Main page
METAR-TAF:

METAR-TAF

Airports :

Air Force Base Hoedspruit

Hoedspruit, South Africa

latitude: 24-21-17S, longitude: 31-03-01E, elevation: 531 m

Current weather observation

The report was made 17 minutes ago, at 10:00 UTC
Wind 11 kt from the North/Northeast
Temperature 27°C
Humidity 42%
Pressure 1017 hPa

METAR: FAHS 191000Z AUTO 02011KT //// // ////// 27/13 Q1017

Time: 12:17 (10:17 UTC)

Forecast

The report was made 1 hour and 17 minutes ago, at 09:00 UTC
Forecast valid from 19 at 10 UTC to 19 at 18 UTC
Wind 9 kt from the North/Northwest
Visibility 10 km or more
no clouds below 1500 m and no cumulonimbus

TAF: FAHS 190900Z 1910/1918 34009KT CAVOK TX30/1913Z TN22/1918Z

Weather observations and forecasts of more than 4000 airports (METAR and TAF reports).

The available stations are represented by yellow and red dots on the map.

Hover mouse over dot to see the name of the station.

Then click to see weather observations and forecasts.

To change the map : click on the green buttons with a black cross to zoom in, on the green button with a dash to zoom out, or on the green arrows for adjacent maps.


METAR-TAF: